Time;durP1;ratioP1;P1;durP2;ratioP2;P2;SDS_P1;SDS_P2;PMS_P1;PMS_P2;Temp;Humidity;BMP_temperature;BMP_pressure;BME280_temperature;BME280_humidity;BME280_pressure;Samples;Min_cycle;Max_cycle;Signal;HPM_P1;HPM_P2
2024/01/17 00:01:30;;;;;;;12.80;7.33;;;;;;;-8.49;100.00;96776.16;6198866;28;20202;-86
2024/01/17 00:04:32;;;;;;;11.63;7.07;;;;;;;-7.88;100.00;96839.19;6147902;28;20198;-89
2024/01/17 00:07:35;;;;;;;12.17;7.30;;;;;;;-8.82;100.00;96691.56;6114108;29;20191;-89
2024/01/17 00:10:39;;;;;;;9.67;6.40;;;;;;;-8.96;100.00;96682.56;6137533;28;20321;-90
2024/01/17 00:13:41;;;;;;;13.33;7.40;;;;;;;-8.31;100.00;96786.47;6103991;28;20215;-89
2024/01/17 00:16:44;;;;;;;9.90;6.30;;;;;;;-7.93;100.00;96831.91;6120012;29;20619;-87
2024/01/17 00:19:47;;;;;;;12.13;6.50;;;;;;;-7.81;100.00;96835.88;6133676;28;20554;-87
2024/01/17 00:22:49;;;;;;;9.93;6.10;;;;;;;-7.95;100.00;96825.25;6107428;28;20644;-87
2024/01/17 00:25:52;;;;;;;11.87;6.73;;;;;;;-8.36;100.00;96765.47;6122017;28;20206;-87
2024/01/17 00:28:55;;;;;;;10.30;5.87;;;;;;;-8.88;100.00;96717.00;6119700;29;20202;-87
2024/01/17 00:31:58;;;;;;;10.87;6.17;;;;;;;-9.10;100.00;96681.28;6214809;28;20210;-88
2024/01/17 00:35:02;;;;;;;13.03;7.23;;;;;;;-8.51;100.00;96766.94;6113637;29;20206;-87
2024/01/17 00:38:06;;;;;;;11.63;7.10;;;;;;;-8.36;100.00;96778.38;6121318;29;20559;-87
2024/01/17 00:41:08;;;;;;;13.23;7.73;;;;;;;-8.16;100.00;96781.63;6119965;28;20513;-88
2024/01/17 00:44:16;;;;;;;11.03;6.67;;;;;;;-8.30;100.00;96777.75;6110491;28;20202;-87
2024/01/17 00:47:19;;;;;;;9.73;6.50;;;;;;;-8.45;100.00;96782.66;6193139;28;20203;-87
2024/01/17 00:50:22;;;;;;;13.63;6.90;;;;;;;-8.76;100.00;96699.56;6198466;28;20203;-86
2024/01/17 00:53:25;;;;;;;12.83;7.37;;;;;;;-8.28;100.00;96780.19;6120008;29;20750;-87
2024/01/17 00:56:29;;;;;;;10.63;6.80;;;;;;;-9.14;100.00;96682.53;6214905;28;20216;-86
2024/01/17 00:59:32;;;;;;;11.53;6.37;;;;;;;-8.41;100.00;96796.09;6115831;28;20334;-89
2024/01/17 01:02:34;;;;;;;11.53;7.07;;;;;;;-8.34;100.00;96792.72;6122606;29;20708;-87
2024/01/17 01:05:37;;;;;;;12.73;7.40;;;;;;;-8.93;100.00;96687.44;6095353;28;20210;-87
2024/01/17 01:08:40;;;;;;;13.80;8.27;;;;;;;-9.24;100.00;96628.41;6127936;29;20226;-87
2024/01/17 01:11:43;;;;;;;12.87;7.17;;;;;;;-8.58;100.00;96748.59;6117642;28;20221;-88
2024/01/17 01:14:45;;;;;;;11.50;6.33;;;;;;;-9.02;100.00;96680.56;6108363;28;20195;-88
2024/01/17 01:17:48;;;;;;;14.47;7.40;;;;;;;-8.46;100.00;96786.19;6123590;29;20222;-86
2024/01/17 01:20:51;;;;;;;8.33;5.83;;;;;;;-9.03;100.00;96695.22;6209069;28;20207;-87
2024/01/17 01:23:53;;;;;;;9.70;6.70;;;;;;;-8.69;100.00;96741.88;6110441;28;20238;-87
2024/01/17 01:26:56;;;;;;;12.93;6.67;;;;;;;-8.71;100.00;96724.94;6116836;29;20667;-88
2024/01/17 01:29:59;;;;;;;10.93;6.23;;;;;;;-8.70;100.00;96747.19;6139786;29;20246;-86
2024/01/17 01:33:02;;;;;;;12.40;6.10;;;;;;;-9.72;100.00;96588.22;6135232;29;20427;-89
2024/01/17 01:36:05;;;;;;;10.80;6.43;;;;;;;-8.72;100.00;96746.53;6143365;28;20228;-90
2024/01/17 01:39:08;;;;;;;11.27;6.37;;;;;;;-9.65;100.00;96597.03;6129939;29;20226;-86
2024/01/17 01:42:11;;;;;;;8.90;5.90;;;;;;;-8.79;100.00;96715.31;6142623;28;20191;-88
2024/01/17 01:45:14;;;;;;;10.60;6.13;;;;;;;-8.99;100.00;96709.47;6136166;29;20212;-87
2024/01/17 01:48:16;;;;;;;11.47;6.40;;;;;;;-8.81;100.00;96742.25;6124763;28;20198;-87
2024/01/17 01:51:19;;;;;;;10.30;6.40;;;;;;;-8.73;100.00;96745.72;6139300;28;20207;-87
2024/01/17 01:54:23;;;;;;;10.47;5.73;;;;;;;-8.49;100.00;96768.41;6108392;29;20208;-87
2024/01/17 01:57:28;;;;;;;10.27;5.53;;;;;;;-9.03;100.00;96686.66;6121455;29;20217;-87
2024/01/17 02:00:32;;;;;;;11.43;6.13;;;;;;;-9.48;100.00;96620.41;6107868;28;20200;-87
2024/01/17 02:03:35;;;;;;;12.53;6.17;;;;;;;-8.90;100.00;96707.78;6106072;29;20219;-87
2024/01/17 02:06:39;;;;;;;9.13;5.27;;;;;;;-8.63;100.00;96750.81;6104976;28;20191;-89
2024/01/17 02:09:44;;;;;;;10.30;5.50;;;;;;;-9.17;100.00;96685.38;6120112;29;20210;-89
2024/01/17 02:12:48;;;;;;;10.33;5.33;;;;;;;-8.84;100.00;96695.09;6100331;29;20295;-90
2024/01/17 02:15:51;;;;;;;10.33;5.83;;;;;;;-10.13;100.00;96501.91;6094887;29;20604;-90
2024/01/17 02:18:54;;;;;;;11.33;5.30;;;;;;;-9.78;100.00;96562.22;6107036;28;20211;-90
2024/01/17 02:21:57;;;;;;;7.90;5.07;;;;;;;-9.31;100.00;96658.28;6121848;28;20213;-89
2024/01/17 02:25:04;;;;;;;10.63;5.87;;;;;;;-9.28;100.00;96641.75;6114289;29;20750;-90
2024/01/17 02:28:07;;;;;;;11.50;5.70;;;;;;;-9.56;100.00;96574.72;6118159;29;20199;-90
2024/01/17 02:31:11;;;;;;;8.70;5.23;;;;;;;-9.66;100.00;96582.50;6107645;29;20206;-89
2024/01/17 02:34:14;;;;;;;8.93;5.03;;;;;;;-9.10;100.00;96651.13;6114833;29;20262;-86
2024/01/17 02:37:17;;;;;;;7.97;5.20;;;;;;;-9.16;100.00;96636.25;6111046;29;20298;-88
2024/01/17 02:40:19;;;;;;;10.20;4.70;;;;;;;-8.98;100.00;96663.84;6111901;29;20214;-89
2024/01/17 02:43:23;;;;;;;9.27;6.00;;;;;;;-10.26;100.00;96475.72;6100645;29;20257;-87
2024/01/17 02:46:28;;;;;;;9.63;5.57;;;;;;;-10.08;100.00;96501.50;6136860;28;20196;-87
2024/01/17 02:49:31;;;;;;;8.77;5.67;;;;;;;-9.43;100.00;96620.78;6099166;29;20238;-88
2024/01/17 02:52:33;;;;;;;9.43;4.93;;;;;;;-9.20;100.00;96622.03;6114532;28;20217;-87
2024/01/17 02:55:36;;;;;;;12.63;5.87;;;;;;;-9.12;100.00;96634.16;6112054;28;20207;-88
2024/01/17 02:58:38;;;;;;;11.50;6.10;;;;;;;-9.33;100.00;96620.72;6121055;28;20220;-87
2024/01/17 03:01:43;;;;;;;9.07;4.80;;;;;;;-9.19;100.00;96630.56;6124832;28;20264;-88
2024/01/17 03:04:45;;;;;;;10.13;5.13;;;;;;;-9.57;100.00;96585.16;6128103;29;20337;-89
2024/01/17 03:07:48;;;;;;;7.70;4.30;;;;;;;-9.62;100.00;96593.34;6121598;29;20207;-88
2024/01/17 03:10:50;;;;;;;8.10;4.90;;;;;;;-9.43;100.00;96602.75;6125273;29;20210;-88
2024/01/17 03:13:54;;;;;;;8.53;4.40;;;;;;;-9.41;100.00;96601.66;6115445;29;20203;-92
2024/01/17 03:16:58;;;;;;;7.80;4.47;;;;;;;-9.28;100.00;96631.44;6136131;28;20270;-90
2024/01/17 03:20:01;;;;;;;8.93;4.43;;;;;;;-9.19;100.00;96651.19;6151514;28;20206;-89
2024/01/17 03:23:04;;;;;;;7.00;4.40;;;;;;;-9.39;100.00;96615.19;6161115;28;20290;-89
2024/01/17 03:26:06;;;;;;;9.40;4.60;;;;;;;-9.50;100.00;96588.81;6158682;28;20196;-88
2024/01/17 03:29:10;;;;;;;8.70;5.00;;;;;;;-9.72;100.00;96507.53;6157274;28;20287;-88
2024/01/17 03:32:12;;;;;;;8.87;4.20;;;;;;;-10.08;100.00;96450.78;6149303;28;20228;-89
2024/01/17 03:35:15;;;;;;;9.80;4.13;;;;;;;-9.26;100.00;96589.09;6138239;28;20210;-90
2024/01/17 03:38:18;;;;;;;9.43;4.50;;;;;;;-9.25;100.00;96587.31;6104554;28;20215;-91
2024/01/17 03:41:21;;;;;;;9.43;4.17;;;;;;;-9.10;100.00;96612.44;6121494;29;20223;-90
2024/01/17 03:44:24;;;;;;;7.43;4.40;;;;;;;-10.79;100.00;96366.47;6210158;28;20312;-90
2024/01/17 03:47:26;;;;;;;8.07;4.47;;;;;;;-9.36;100.00;96562.50;6123039;28;20211;-90
2024/01/17 03:50:29;;;;;;;5.87;4.50;;;;;;;-9.36;100.00;96547.03;6119857;29;20206;-91
2024/01/17 03:53:32;;;;;;;6.37;3.87;;;;;;;-9.93;100.00;96458.84;6205713;28;20206;-90
2024/01/17 03:56:35;;;;;;;8.60;4.67;;;;;;;-9.05;100.00;96562.19;6110486;28;20244;-93
2024/01/17 03:59:43;;;;;;;9.00;4.00;;;;;;;-9.56;100.00;96481.13;6125779;28;20241;-93
2024/01/17 04:02:45;;;;;;;8.17;4.53;;;;;;;-10.13;100.00;96373.97;6183961;28;20289;-92
2024/01/17 04:05:48;;;;;;;13.40;5.57;;;;;;;-8.86;100.00;96582.69;6207525;28;20294;-91
2024/01/17 04:08:50;;;;;;;7.23;4.33;;;;;;;-8.90;100.00;96543.47;6204426;28;20241;-92
2024/01/17 04:11:53;;;;;;;9.20;4.63;;;;;;;-8.76;100.00;96551.66;6118133;28;20196;-91
2024/01/17 04:14:56;;;;;;;9.40;4.60;;;;;;;-10.27;100.00;96307.56;6105888;28;20802;-92
2024/01/17 04:17:58;;;;;;;7.87;4.50;;;;;;;-9.86;100.00;96307.88;6127546;29;20230;-91
2024/01/17 04:21:01;;;;;;;8.87;4.80;;;;;;;-9.20;100.00;96394.25;6123574;29;20297;-92
2024/01/17 04:24:04;;;;;;;11.63;4.80;;;;;;;-8.44;100.00;96500.22;6100866;28;20314;-88
2024/01/17 04:27:07;;;;;;;5.90;4.37;;;;;;;-8.42;100.00;96490.56;6125152;29;20248;-89
2024/01/17 04:30:14;;;;;;;8.80;4.70;;;;;;;-8.19;100.00;96508.06;6214219;28;20218;-89
2024/01/17 04:33:16;;;;;;;6.47;3.90;;;;;;;-8.28;100.00;96504.63;6108390;29;20680;-89
2024/01/17 04:36:20;;;;;;;9.30;4.80;;;;;;;-8.26;100.00;96494.97;6118792;28;20731;-89
2024/01/17 04:39:23;;;;;;;8.30;4.10;;;;;;;-8.63;100.00;96422.97;6108655;28;20446;-89
2024/01/17 04:42:25;;;;;;;7.53;3.87;;;;;;;-8.08;100.00;96515.53;6125699;28;20213;-90
2024/01/17 04:45:30;;;;;;;8.37;4.40;;;;;;;-8.22;100.00;96496.28;6127836;29;20304;-91
2024/01/17 04:48:35;;;;;;;7.57;4.40;;;;;;;-8.52;100.00;96458.88;6131060;29;20198;-91
2024/01/17 04:51:40;;;;;;;8.50;4.57;;;;;;;-9.99;100.00;96238.75;6227605;28;20297;-91
2024/01/17 04:54:44;;;;;;;11.10;5.47;;;;;;;-8.11;100.00;96539.13;6217510;28;20200;-90
2024/01/17 04:57:46;;;;;;;9.17;4.27;;;;;;;-8.36;100.00;96483.97;6138698;28;20297;-90
2024/01/17 05:00:49;;;;;;;8.37;4.77;;;;;;;-9.15;100.00;96317.25;6242850;28;20234;-90
2024/01/17 05:03:51;;;;;;;7.83;4.87;;;;;;;-7.76;100.00;96535.56;6154138;28;20290;-90
2024/01/17 05:06:55;;;;;;;7.27;4.60;;;;;;;-9.75;100.00;96229.53;6126971;28;20192;-92
2024/01/17 05:09:57;;;;;;;8.77;4.73;;;;;;;-9.88;100.00;96168.13;6139168;28;20207;-91
2024/01/17 05:13:01;;;;;;;7.47;4.93;;;;;;;-9.62;100.00;96248.00;6216943;28;20226;-92
2024/01/17 05:16:04;;;;;;;8.83;4.40;;;;;;;-9.44;100.00;96235.88;6109839;28;20206;-90
2024/01/17 05:19:07;;;;;;;6.93;4.03;;;;;;;-8.62;100.00;96373.81;6113707;28;20211;-89
2024/01/17 05:22:12;;;;;;;8.57;4.50;;;;;;;-7.64;100.00;96498.09;6118177;28;20675;-89
2024/01/17 05:25:15;;;;;;;7.73;5.00;;;;;;;-9.62;100.00;96186.94;6113521;28;20302;-92
2024/01/17 05:28:18;;;;;;;10.77;4.63;;;;;;;-9.46;100.00;96175.09;6207830;28;20207;-91
2024/01/17 05:31:21;;;;;;;9.83;5.17;;;;;;;-8.09;100.00;96377.00;6112456;29;20214;-90
2024/01/17 05:34:24;;;;;;;6.97;4.57;;;;;;;-8.47;100.00;96304.31;6133745;29;20206;-90
2024/01/17 05:37:28;;;;;;;5.07;3.73;;;;;;;-9.28;100.00;96173.25;6232551;28;20214;-92
2024/01/17 05:40:33;;;;;;;8.70;4.33;;;;;;;-9.09;100.00;96226.34;6123318;29;20234;-92
2024/01/17 05:43:37;;;;;;;9.07;4.63;;;;;;;-9.26;100.00;96179.06;6133517;28;20270;-91
2024/01/17 05:46:40;;;;;;;7.43;4.43;;;;;;;-8.11;100.00;96376.38;6122687;28;20206;-94
2024/01/17 05:49:43;;;;;;;8.87;4.30;;;;;;;-8.08;100.00;96355.38;6117588;28;20524;-92
2024/01/17 05:52:48;;;;;;;7.93;5.00;;;;;;;-7.09;100.00;96509.72;6111005;29;20212;-94
2024/01/17 05:55:52;;;;;;;7.53;4.23;;;;;;;-7.89;100.00;96411.13;6103543;29;20206;-95
2024/01/17 05:58:54;;;;;;;7.83;4.20;;;;;;;-8.05;100.00;96388.66;6123216;29;20219;-95
2024/01/17 06:01:57;;;;;;;7.13;4.30;;;;;;;-8.42;100.00;96343.38;6116947;29;20219;-93
2024/01/17 06:05:02;;;;;;;7.80;4.33;;;;;;;-7.93;100.00;96365.88;6126823;28;20211;-92
2024/01/17 06:08:06;;;;;;;8.53;4.77;;;;;;;-9.02;100.00;96242.81;6140619;28;20195;-92
2024/01/17 06:11:10;;;;;;;9.27;5.00;;;;;;;-8.25;100.00;96341.59;6127951;28;20209;-92
2024/01/17 06:14:18;;;;;;;5.40;4.13;;;;;;;-8.87;100.00;96189.66;6141672;28;20214;-92
2024/01/17 06:17:22;;;;;;;6.87;4.60;;;;;;;-8.87;100.00;96199.97;6136731;28;20297;-91
2024/01/17 06:20:25;;;;;;;12.30;5.00;;;;;;;-6.77;100.00;96498.53;6206792;28;20206;-92
2024/01/17 06:23:31;;;;;;;7.93;4.90;;;;;;;-8.73;100.00;96166.78;6251917;28;20225;-90
2024/01/17 06:26:37;;;;;;;7.33;5.30;;;;;;;-7.60;100.00;96374.50;6181935;28;20216;-94
2024/01/17 06:29:44;;;;;;;9.20;4.87;;;;;;;-8.07;100.00;96266.56;6215718;28;20197;-94
2024/01/17 06:32:47;;;;;;;6.90;4.73;;;;;;;-8.44;100.00;96246.38;6211928;28;20228;-93
2024/01/17 06:35:49;;;;;;;7.53;5.27;;;;;;;-7.77;100.00;96323.78;6201740;28;20215;-95
2024/01/17 06:38:52;;;;;;;11.30;5.97;;;;;;;-6.57;100.00;96484.28;6231184;28;20223;-96
2024/01/17 06:41:55;;;;;;;11.30;6.67;;;;;;;-6.54;100.00;96472.81;6217817;28;20208;-94
2024/01/17 06:44:58;;;;;;;8.70;5.47;;;;;;;-8.03;100.00;96228.28;6226304;28;20189;-90
2024/01/17 06:48:02;;;;;;;10.27;6.27;;;;;;;-6.85;100.00;96408.75;6234689;28;20213;-88
2024/01/17 06:51:04;;;;;;;12.83;6.17;;;;;;;-7.07;100.00;96358.47;6248763;28;20172;-88
2024/01/17 06:54:09;;;;;;;12.83;6.07;;;;;;;-7.08;100.00;96356.88;6240243;28;20674;-90
2024/01/17 06:57:12;;;;;;;9.80;6.00;;;;;;;-6.41;100.00;96436.81;6223511;28;20220;-94
2024/01/17 07:00:15;;;;;;;24.47;11.40;;;;;;;-6.28;100.00;96455.25;6206299;28;20197;-94
2024/01/17 07:03:18;;;;;;;26.13;13.60;;;;;;;-6.68;100.00;96349.16;6206616;28;20201;-93
2024/01/17 07:06:20;;;;;;;24.67;13.93;;;;;;;-6.90;100.00;96322.19;6206726;28;20201;-90
2024/01/17 07:09:23;;;;;;;22.63;13.90;;;;;;;-6.37;100.00;96401.81;6215038;28;20197;-89
2024/01/17 07:12:25;;;;;;;24.67;13.77;;;;;;;-6.30;100.00;96404.56;6219839;28;20744;-90
2024/01/17 07:15:31;;;;;;;21.13;12.53;;;;;;;-7.35;100.00;96267.47;6228424;28;20197;-92
2024/01/17 07:18:45;;;;;;;21.90;12.00;;;;;;;-7.99;100.00;96163.19;6240401;28;20216;-91
2024/01/17 07:22:15;;;;;;;17.87;11.03;;;;;;;-7.75;100.00;96211.47;6233146;28;20288;-92
2024/01/17 07:25:56;;;;;;;22.40;12.30;;;;;;;-5.68;100.00;96481.56;6138462;28;20299;-90
2024/01/17 07:29:14;;;;;;;20.23;11.47;;;;;;;-7.81;100.00;96188.88;6140458;28;20208;-90
2024/01/17 07:32:46;;;;;;;27.60;15.23;;;;;;;-6.79;100.00;96294.19;6132490;28;20208;-91
2024/01/17 07:35:59;;;;;;;29.43;14.87;;;;;;;-6.35;100.00;96378.34;6129272;29;20187;-92
2024/01/17 07:39:18;;;;;;;31.63;15.83;;;;;;;-7.58;100.00;96150.22;6132798;29;20245;-90
2024/01/17 07:43:06;;;;;;;31.00;15.87;;;;;;;-7.51;100.00;96090.88;6131890;29;20207;-91
2024/01/17 07:46:33;;;;;;;29.70;16.87;;;;;;;-7.11;100.00;96194.16;6123396;28;20204;-91
2024/01/17 07:51:02;;;;;;;30.00;16.57;;;;;;;-6.79;100.00;96203.56;6129926;29;20205;-89
2024/01/17 07:55:02;;;;;;;33.30;16.13;;;;;;;-6.14;100.00;96232.63;6248104;28;20197;-91
2024/01/17 07:59:38;;;;;;;29.43;16.53;;;;;;;-7.18;100.00;96143.28;6206868;28;20220;-89
2024/01/17 08:04:18;;;;;;;26.80;16.10;;;;;;;-7.18;100.00;96123.38;6242060;28;20189;-90
2024/01/17 08:08:35;;;;;;;30.20;15.93;;;;;;;-6.90;100.00;96166.88;6233630;28;20448;-91
2024/01/17 08:12:35;;;;;;;33.40;17.53;;;;;;;-5.05;100.00;96419.00;6204877;28;20271;-89
2024/01/17 08:16:07;;;;;;;31.87;16.07;;;;;;;-6.30;100.00;96254.28;6216294;28;20241;-91
2024/01/17 08:19:09;;;;;;;31.03;17.27;;;;;;;-5.05;100.00;96394.84;6180681;28;20236;-91
2024/01/17 08:22:12;;;;;;;30.60;15.63;;;;;;;-5.99;100.00;96255.03;6199075;28;20205;-89
2024/01/17 08:25:15;;;;;;;33.20;17.23;;;;;;;-6.53;100.00;96148.84;6137721;28;20841;-94
2024/01/17 08:28:17;;;;;;;27.70;16.60;;;;;;;-6.60;100.00;96134.16;6123670;29;20196;-94
2024/01/17 08:31:20;;;;;;;27.23;15.57;;;;;;;-5.72;100.00;96237.28;6122439;28;20706;-93
2024/01/17 08:34:23;;;;;;;30.87;17.67;;;;;;;-4.82;100.00;96366.22;6114551;29;20211;-94
2024/01/17 08:37:26;;;;;;;31.57;15.70;;;;;;;-5.23;100.00;96286.13;6110455;29;20223;-95
2024/01/17 08:40:28;;;;;;;29.53;16.73;;;;;;;-4.89;100.00;96328.94;6116943;28;20200;-96
2024/01/17 08:43:35;;;;;;;29.83;16.80;;;;;;;-6.51;100.00;96087.31;6115791;29;20241;-93
2024/01/17 08:46:45;;;;;;;32.67;17.23;;;;;;;-6.58;100.00;96039.81;6111094;29;20208;-96
2024/01/17 08:49:48;;;;;;;27.77;15.57;;;;;;;-4.98;100.00;96271.91;6119255;28;20200;-93
2024/01/17 08:52:51;;;;;;;35.83;17.27;;;;;;;-6.33;100.00;96042.97;6116321;29;20207;-93
2024/01/17 08:55:53;;;;;;;31.30;17.03;;;;;;;-4.50;100.00;96326.88;6125622;28;20245;-93
2024/01/17 08:58:56;;;;;;;32.10;16.47;;;;;;;-5.34;100.00;96173.19;6121963;29;20242;-95
2024/01/17 09:01:59;;;;;;;28.97;15.53;;;;;;;-5.00;100.00;96258.31;6120487;29;20207;-93
2024/01/17 09:05:02;;;;;;;30.07;16.70;;;;;;;-6.10;100.00;96053.28;6135300;29;20246;-90
2024/01/17 09:08:05;;;;;;;40.40;18.63;;;;;;;-4.24;100.00;96326.41;6141125;28;20186;-89
2024/01/17 09:11:08;;;;;;;31.73;17.17;;;;;;;-6.04;100.00;96018.06;6138863;28;20192;-89
2024/01/17 09:14:11;;;;;;;35.73;17.93;;;;;;;-5.15;100.00;96192.59;6142827;28;20211;-89
2024/01/17 09:17:14;;;;;;;33.00;17.60;;;;;;;-6.10;100.00;96009.22;6142529;28;20202;-90
2024/01/17 09:20:17;;;;;;;30.03;17.20;;;;;;;-6.14;100.00;96000.19;6150812;28;20278;-89
2024/01/17 09:23:20;;;;;;;29.20;16.23;;;;;;;-4.50;100.00;96237.72;6135003;28;20249;-93
2024/01/17 09:26:22;;;;;;;30.23;16.77;;;;;;;-4.21;100.00;96294.84;6089584;29;20211;-90
2024/01/17 09:29:25;;;;;;;28.83;16.60;;;;;;;-5.88;100.00;95993.72;6199038;28;20370;-90
2024/01/17 09:32:28;;;;;;;30.80;16.50;;;;;;;-5.33;100.00;96099.53;6116004;29;20200;-90
2024/01/17 09:35:35;;;;;;;29.57;15.67;;;;;;;-3.98;100.00;96273.88;6115379;28;20211;-94
2024/01/17 09:38:55;;;;;;;27.03;15.80;;;;;;;-3.91;100.00;96264.34;6201244;28;20231;-94
2024/01/17 09:42:02;;;;;;;28.73;16.10;;;;;;;-5.66;100.00;95985.00;6132977;29;20214;-96
2024/01/17 09:45:09;;;;;;;28.10;15.57;;;;;;;-5.50;100.00;96009.94;6138210;29;20209;-93
2024/01/17 09:48:14;;;;;;;30.90;17.70;;;;;;;-5.80;100.00;95978.84;6156314;28;20222;-95
2024/01/17 09:51:24;;;;;;;30.13;16.53;;;;;;;-5.42;100.00;96020.19;6204536;28;20203;-94
2024/01/17 09:54:29;;;;;;;30.47;17.57;;;;;;;-5.92;100.00;95909.53;6123364;28;20199;-94
2024/01/17 09:57:37;;;;;;;31.83;16.80;;;;;;;-3.65;100.00;96240.34;6204590;28;20345;-95
2024/01/17 10:00:43;;;;;;;29.63;17.20;;;;;;;-5.31;100.00;95980.00;6137425;28;20207;-93
2024/01/17 10:03:46;;;;;;;28.40;16.23;;;;;;;-5.37;100.00;95934.81;6124436;28;20719;-95
2024/01/17 10:06:49;;;;;;;30.27;15.97;;;;;;;-3.40;100.00;96226.91;6113983;28;20698;-94
2024/01/17 10:09:53;;;;;;;29.93;16.67;;;;;;;-4.73;100.00;95985.88;6125702;28;20196;-95
2024/01/17 10:12:55;;;;;;;31.70;17.50;;;;;;;-5.33;100.00;95867.78;6206524;28;20203;-94
2024/01/17 10:16:03;;;;;;;33.10;17.63;;;;;;;-3.32;100.00;96164.28;6125755;29;20210;-93
2024/01/17 10:19:06;;;;;;;24.67;14.97;;;;;;;-4.39;100.00;95985.13;6203608;28;20207;-94
2024/01/17 10:22:10;;;;;;;28.10;16.07;;;;;;;-3.17;100.00;96164.16;6125125;28;20197;-93
2024/01/17 10:25:13;;;;;;;24.43;13.50;;;;;;;-5.38;100.00;95816.44;6122556;28;20738;-91
2024/01/17 10:28:15;;;;;;;29.97;17.30;;;;;;;-5.00;100.00;95819.50;6123409;29;20226;-93
2024/01/17 10:31:23;;;;;;;27.43;16.13;;;;;;;-4.61;100.00;95846.72;6215111;28;20226;-93
2024/01/17 10:34:30;;;;;;;31.20;17.37;;;;;;;-3.86;100.00;95898.81;6126489;28;20204;-91
2024/01/17 10:37:34;;;;;;;25.70;14.80;;;;;;;-3.23;100.00;95964.44;6127395;29;20209;-90
2024/01/17 10:40:40;;;;;;;31.37;16.60;;;;;;;-3.23;100.00;95986.06;6093014;28;20196;-90
2024/01/17 10:44:02;;;;;;;26.07;14.87;;;;;;;-2.50;100.00;96061.75;6124912;29;20276;-90
2024/01/17 10:47:05;;;;;;;28.10;16.83;;;;;;;-2.65;100.00;96037.69;6125259;28;20211;-90
2024/01/17 10:50:10;;;;;;;27.47;15.83;;;;;;;-3.20;100.00;95957.06;6125750;29;20203;-90
2024/01/17 10:53:18;;;;;;;28.07;16.10;;;;;;;-4.42;100.00;95751.66;6126539;28;20202;-90
2024/01/17 10:56:21;;;;;;;31.13;16.50;;;;;;;-2.57;100.00;96037.47;6208338;28;20203;-89
2024/01/17 10:59:26;;;;;;;25.60;14.27;;;;;;;-2.76;100.00;96022.59;6124654;28;20652;-89
2024/01/17 11:02:31;;;;;;;30.40;15.63;;;;;;;-3.49;100.00;95859.28;6206021;28;20187;-91
2024/01/17 11:05:42;;;;;;;27.97;15.97;;;;;;;-2.53;100.00;95999.56;6124602;29;20195;-91
2024/01/17 11:08:46;;;;;;;30.13;15.77;;;;;;;-2.81;100.00;96012.78;6139824;28;20210;-90
2024/01/17 11:11:49;;;;;;;32.67;15.77;;;;;;;-2.63;100.00;96026.03;6116863;29;20207;-91
2024/01/17 11:14:55;;;;;;;31.20;16.40;;;;;;;-2.64;100.00;96008.81;6124106;29;20208;-90
2024/01/17 11:18:01;;;;;;;28.77;15.70;;;;;;;-2.64;100.00;95995.78;6134465;28;20214;-90
2024/01/17 11:21:05;;;;;;;25.43;14.73;;;;;;;-3.36;100.00;95874.09;6107400;28;20204;-90
2024/01/17 11:24:33;;;;;;;29.87;15.80;;;;;;;-2.88;100.00;95939.84;6126598;28;20238;-90
2024/01/17 11:27:42;;;;;;;31.80;16.80;;;;;;;-3.03;100.00;95853.28;6116675;28;20202;-92
2024/01/17 11:31:17;;;;;;;34.90;17.47;;;;;;;-2.17;100.00;96001.78;6152830;28;20296;-91
2024/01/17 11:34:21;;;;;;;27.73;16.50;;;;;;;-2.66;100.00;95950.03;6158975;28;20191;-92
2024/01/17 11:37:38;;;;;;;33.53;17.87;;;;;;;-2.56;100.00;95942.66;6136073;28;20212;-91
2024/01/17 11:40:41;;;;;;;29.80;16.40;;;;;;;-3.04;100.00;95840.47;6167451;28;20204;-91
2024/01/17 11:43:44;;;;;;;29.03;16.67;;;;;;;-2.28;100.00;95944.19;6171322;28;20248;-91
2024/01/17 11:46:51;;;;;;;29.40;16.90;;;;;;;-2.13;100.00;95957.81;6150142;22;20244;-52
2024/01/17 11:49:54;;;;;;;30.80;17.43;;;;;;;-1.77;100.00;95959.91;6155589;28;20202;-51
2024/01/17 11:52:57;;;;;;;28.03;16.00;;;;;;;-2.08;100.00;95956.19;6137389;28;20225;-52
2024/01/17 11:56:08;;;;;;;31.43;16.97;;;;;;;-2.30;100.00;95956.66;6147267;28;20195;-53
2024/01/17 11:59:16;;;;;;;30.00;17.07;;;;;;;-2.22;100.00;95952.00;6156993;28;20690;-52
2024/01/17 12:02:36;;;;;;;29.73;16.10;;;;;;;-2.01;100.00;95956.19;6157010;28;20728;-51
2024/01/17 12:05:44;;;;;;;32.37;17.93;;;;;;;-2.20;100.00;95936.97;6148499;28;20201;-53
2024/01/17 12:08:48;;;;;;;33.33;18.07;;;;;;;-2.03;100.00;95936.50;6173772;28;20221;-54
2024/01/17 12:11:55;;;;;;;33.63;18.43;;;;;;;-2.04;100.00;95924.47;6152250;28;20343;-50
2024/01/17 12:14:57;;;;;;;29.90;17.17;;;;;;;-2.03;100.00;95929.47;6146525;28;20860;-51
2024/01/17 12:18:02;;;;;;;30.90;17.90;;;;;;;-2.01;100.00;95922.25;6159416;28;20210;-52
2024/01/17 12:21:06;;;;;;;32.33;17.53;;;;;;;-2.05;100.00;95923.69;6151783;28;20714;-51
2024/01/17 12:24:11;;;;;;;31.00;17.10;;;;;;;-2.07;100.00;95910.00;6149702;28;20300;-52
2024/01/17 12:27:14;;;;;;;32.70;17.63;;;;;;;-1.98;100.00;95911.41;6151741;28;20706;-54
2024/01/17 12:30:17;;;;;;;31.50;16.90;;;;;;;-1.99;100.00;95919.44;6132592;28;20214;-52
2024/01/17 12:33:19;;;;;;;29.80;15.93;;;;;;;-1.95;100.00;95897.16;6149408;28;20202;-54
2024/01/17 12:36:26;;;;;;;30.60;16.97;;;;;;;-1.90;100.00;95898.13;6152755;28;20199;-53
2024/01/17 12:39:33;;;;;;;27.73;15.60;;;;;;;-1.79;100.00;95896.66;6150568;28;20215;-49
2024/01/17 12:42:36;;;;;;;27.90;16.53;;;;;;;-1.80;100.00;95909.94;6153993;28;20285;-51
2024/01/17 12:45:38;;;;;;;30.00;16.70;;;;;;;-1.91;100.00;95882.69;6150648;28;20239;-54
2024/01/17 12:48:56;;;;;;;26.43;15.00;;;;;;;-1.78;100.00;95889.63;6144830;28;20206;-53
2024/01/17 12:51:59;;;;;;;30.80;16.80;;;;;;;-1.76;100.00;95893.66;6232889;28;20573;-53
2024/01/17 12:55:02;;;;;;;34.17;17.10;;;;;;;-1.73;100.00;95884.59;6148896;28;20186;-54
2024/01/17 12:58:06;;;;;;;27.57;17.23;;;;;;;-1.89;100.00;95860.56;6142628;28;20194;-53
2024/01/17 13:01:11;;;;;;;27.33;16.60;;;;;;;-1.78;100.00;95872.16;6151458;28;20426;-51
2024/01/17 13:04:14;;;;;;;31.13;17.03;;;;;;;-1.77;100.00;95884.22;6153866;28;20654;-51
2024/01/17 13:07:26;;;;;;;30.67;16.57;;;;;;;-1.93;100.00;95864.59;6158170;28;20726;-54
2024/01/17 13:10:33;;;;;;;28.43;17.23;;;;;;;-1.85;100.00;95856.56;6155409;28;20568;-55
2024/01/17 13:13:35;;;;;;;30.00;16.23;;;;;;;-1.85;100.00;95861.78;6153683;28;20332;-51
2024/01/17 13:16:38;;;;;;;29.10;18.20;;;;;;;-1.98;100.00;95829.72;6145964;28;20323;-56
2024/01/17 13:19:41;;;;;;;26.43;15.10;;;;;;;-1.83;100.00;95859.75;6168429;28;20714;-54
2024/01/17 13:22:43;;;;;;;29.73;15.20;;;;;;;-1.95;100.00;95827.50;6152655;28;20198;-55
2024/01/17 13:25:46;;;;;;;29.90;15.70;;;;;;;-1.80;100.00;95858.53;6147191;28;20205;-50
2024/01/17 13:28:48;;;;;;;31.53;16.73;;;;;;;-2.01;100.00;95810.06;6140264;28;20197;-54
2024/01/17 13:31:52;;;;;;;29.87;16.40;;;;;;;-1.80;100.00;95850.72;6152588;28;20191;-55
2024/01/17 13:34:55;;;;;;;29.70;17.00;;;;;;;-1.88;100.00;95836.06;6145793;28;20203;-52
2024/01/17 13:37:57;;;;;;;34.80;17.07;;;;;;;-1.93;100.00;95845.53;6153154;28;20619;-53
2024/01/17 13:41:00;;;;;;;28.20;15.90;;;;;;;-1.82;100.00;95860.56;6151616;28;20293;-54
2024/01/17 13:44:03;;;;;;;29.97;17.03;;;;;;;-1.78;100.00;95850.50;6144319;28;20494;-55
2024/01/17 13:47:06;;;;;;;29.47;17.40;;;;;;;-1.76;100.00;95871.97;6157922;28;20652;-55
2024/01/17 13:50:20;;;;;;;29.00;16.57;;;;;;;-1.70;100.00;95852.88;6152437;28;20286;-51
2024/01/17 13:53:29;;;;;;;32.83;18.70;;;;;;;-1.64;100.00;95847.59;6149680;28;20291;-54
2024/01/17 13:56:32;;;;;;;27.93;16.83;;;;;;;-1.53;100.00;95843.50;6147467;28;20286;-56
2024/01/17 13:59:35;;;;;;;26.90;15.53;;;;;;;-1.42;100.00;95847.28;6146443;28;20276;-55
2024/01/17 14:02:38;;;;;;;28.30;15.53;;;;;;;-1.31;100.00;95817.84;6157282;28;20214;-55
2024/01/17 14:05:41;;;;;;;28.70;15.83;;;;;;;-1.18;100.00;95830.81;6127471;28;20214;-54
2024/01/17 14:08:44;;;;;;;26.57;16.00;;;;;;;-1.31;100.00;95802.19;6146914;28;20190;-53
2024/01/17 14:11:48;;;;;;;25.23;14.33;;;;;;;-1.25;100.00;95787.47;6154878;28;20193;-56
2024/01/17 14:14:51;;;;;;;29.57;15.73;;;;;;;-1.13;100.00;95807.47;6153564;28;20194;-56